Time;durP1;ratioP1;P1;durP2;ratioP2;P2;SDS_P1;SDS_P2;PMS_P1;PMS_P2;Temp;Humidity;BMP_temperature;BMP_pressure;BME280_temperature;BME280_humidity;BME280_pressure;Samples;Min_cycle;Max_cycle;Signal;HPM_P1;HPM_P2
2021/09/09 00:02:01;;;;;;;14.20;10.57;;;18.70;70.60;;;;;;4956797;28;20470;-46
2021/09/09 00:04:31;;;;;;;13.23;9.60;;;18.60;70.70;;;;;;4961597;28;20985;-47
2021/09/09 00:06:58;;;;;;;12.07;10.53;;;18.60;70.80;;;;;;4962209;28;20510;-47
2021/09/09 00:09:24;;;;;;;14.20;11.13;;;18.60;71.00;;;;;;4960727;28;20545;-47
2021/09/09 00:11:53;;;;;;;14.07;10.80;;;18.60;71.10;;;;;;4963385;28;20467;-47
2021/09/09 00:14:20;;;;;;;14.90;11.23;;;18.60;71.10;;;;;;4961971;28;20486;-47
2021/09/09 00:16:47;;;;;;;13.30;10.00;;;18.60;71.20;;;;;;4960192;28;20467;-47
2021/09/09 00:19:14;;;;;;;13.30;11.17;;;18.60;71.40;;;;;;4960336;28;20546;-47
2021/09/09 00:21:41;;;;;;;15.70;12.63;;;18.70;71.30;;;;;;4961530;28;20461;-47
2021/09/09 00:24:08;;;;;;;14.87;10.83;;;18.60;71.30;;;;;;4960338;28;20458;-46
2021/09/09 00:26:35;;;;;;;13.63;10.80;;;18.60;71.30;;;;;;4961417;28;20451;-47
2021/09/09 00:29:01;;;;;;;12.43;10.57;;;18.60;71.30;;;;;;4961738;28;20481;-47
2021/09/09 00:31:28;;;;;;;21.27;11.33;;;18.60;71.40;;;;;;4961906;28;20457;-46
2021/09/09 00:33:55;;;;;;;13.17;10.23;;;18.60;71.40;;;;;;4957458;28;20470;-47
2021/09/09 00:36:22;;;;;;;12.83;10.33;;;18.60;71.40;;;;;;4959431;28;20470;-46
2021/09/09 00:38:48;;;;;;;12.80;10.60;;;18.60;71.40;;;;;;4961037;28;20497;-46
2021/09/09 00:41:15;;;;;;;12.83;10.40;;;18.60;71.40;;;;;;4961840;28;20465;-47
2021/09/09 00:43:44;;;;;;;13.23;10.77;;;18.50;71.50;;;;;;4960397;28;20463;-47
2021/09/09 00:46:11;;;;;;;14.60;10.70;;;18.50;71.60;;;;;;4959474;28;20463;-47
2021/09/09 00:48:38;;;;;;;14.00;10.87;;;18.50;71.60;;;;;;4961420;28;20474;-47
2021/09/09 00:51:05;;;;;;;14.97;10.90;;;18.50;71.70;;;;;;4957723;28;20464;-47
2021/09/09 00:53:32;;;;;;;12.70;10.70;;;18.40;71.80;;;;;;4958854;28;20471;-47
2021/09/09 00:55:59;;;;;;;15.20;12.00;;;18.40;71.90;;;;;;4956143;28;20561;-47
2021/09/09 00:58:26;;;;;;;13.93;11.70;;;18.40;71.90;;;;;;4958162;28;20497;-47
2021/09/09 01:00:55;;;;;;;17.20;11.33;;;18.40;72.10;;;;;;4973094;28;20470;-46
2021/09/09 01:03:22;;;;;;;13.33;10.77;;;18.40;72.10;;;;;;4959274;28;20459;-47
2021/09/09 01:05:49;;;;;;;14.10;11.17;;;18.40;72.20;;;;;;4956615;28;20463;-47
2021/09/09 01:08:16;;;;;;;18.10;11.60;;;18.40;72.30;;;;;;4956983;28;20917;-47
2021/09/09 01:10:43;;;;;;;12.37;10.60;;;18.40;72.30;;;;;;4958423;28;20497;-46
2021/09/09 01:13:10;;;;;;;14.30;10.90;;;18.40;72.40;;;;;;4959649;28;21089;-46
2021/09/09 01:15:42;;;;;;;15.00;11.03;;;18.30;72.40;;;;;;4954145;28;20470;-47
2021/09/09 01:18:13;;;;;;;13.60;11.00;;;18.30;72.50;;;;;;4960197;28;20558;-46
2021/09/09 01:20:44;;;;;;;15.10;11.70;;;18.30;72.60;;;;;;4951600;28;20463;-46
2021/09/09 01:23:10;;;;;;;12.43;10.97;;;18.30;72.60;;;;;;4959238;28;20465;-46
2021/09/09 01:25:37;;;;;;;12.33;10.97;;;18.30;72.60;;;;;;4957927;28;20463;-46
2021/09/09 01:28:04;;;;;;;14.67;11.13;;;18.30;72.60;;;;;;4956802;28;20475;-46
2021/09/09 01:30:31;;;;;;;13.27;11.13;;;18.20;72.60;;;;;;4958389;28;20501;-47
2021/09/09 01:33:00;;;;;;;13.93;11.67;;;18.20;72.60;;;;;;4956113;28;20467;-46
2021/09/09 01:35:28;;;;;;;14.40;11.33;;;18.20;72.70;;;;;;4958195;28;20505;-47
2021/09/09 01:37:54;;;;;;;12.83;10.93;;;18.20;72.80;;;;;;4957399;28;20506;-47
2021/09/09 01:40:31;;;;;;;14.67;11.27;;;18.20;72.90;;;;;;4959454;28;20462;-47
2021/09/09 01:42:59;;;;;;;16.60;11.30;;;18.20;72.90;;;;;;4958442;28;20460;-47
2021/09/09 01:45:26;;;;;;;13.10;11.00;;;18.10;72.90;;;;;;4956884;28;20596;-47
2021/09/09 01:47:53;;;;;;;14.13;11.60;;;18.10;73.00;;;;;;4959753;28;20478;-46
2021/09/09 01:50:20;;;;;;;15.10;10.77;;;18.10;73.00;;;;;;4957843;28;20554;-46
2021/09/09 01:52:47;;;;;;;15.10;11.57;;;18.10;73.00;;;;;;4958686;28;20457;-46
2021/09/09 01:55:14;;;;;;;14.33;10.93;;;18.10;73.10;;;;;;4959276;28;20463;-47
2021/09/09 01:57:41;;;;;;;14.40;10.80;;;18.10;73.30;;;;;;4956095;28;20463;-46
2021/09/09 02:00:08;;;;;;;16.50;11.53;;;18.10;73.30;;;;;;4959087;28;20990;-47
2021/09/09 02:02:36;;;;;;;12.87;10.77;;;18.00;73.40;;;;;;4958736;28;21035;-47
2021/09/09 02:05:04;;;;;;;13.50;11.73;;;18.00;73.40;;;;;;4958177;28;20446;-47
2021/09/09 02:07:30;;;;;;;16.50;11.40;;;18.00;73.50;;;;;;4960040;28;20462;-47
2021/09/09 02:09:57;;;;;;;13.93;11.33;;;18.00;73.40;;;;;;4959863;28;20485;-47
2021/09/09 02:12:24;;;;;;;13.93;11.83;;;18.00;73.60;;;;;;4959800;28;20470;-47
2021/09/09 02:14:51;;;;;;;14.90;11.43;;;18.00;73.60;;;;;;4960653;28;20495;-47
2021/09/09 02:17:19;;;;;;;15.83;12.57;;;18.00;73.70;;;;;;4959626;28;20978;-42
2021/09/09 02:19:45;;;;;;;14.23;12.13;;;17.90;73.70;;;;;;4950856;28;21059;-42
2021/09/09 02:22:12;;;;;;;15.43;11.10;;;17.90;73.70;;;;;;4950308;28;20798;-42
2021/09/09 02:24:45;;;;;;;13.20;11.30;;;17.90;73.80;;;;;;4949014;28;21130;-42
2021/09/09 02:27:15;;;;;;;13.00;10.70;;;17.90;73.90;;;;;;4949530;28;20520;-42
2021/09/09 02:29:42;;;;;;;14.80;11.27;;;17.90;73.90;;;;;;4949435;28;20462;-42
2021/09/09 02:32:09;;;;;;;14.40;10.83;;;17.90;74.00;;;;;;4948932;28;20460;-42
2021/09/09 02:34:36;;;;;;;13.90;10.90;;;17.90;74.00;;;;;;4949641;28;20545;-42
2021/09/09 02:37:03;;;;;;;13.63;11.03;;;17.90;74.10;;;;;;4947618;29;20486;-42
2021/09/09 02:39:30;;;;;;;16.20;12.17;;;17.90;74.20;;;;;;4948361;28;20497;-42
2021/09/09 02:41:57;;;;;;;12.47;11.17;;;17.90;74.30;;;;;;4948820;28;20459;-42
2021/09/09 02:44:25;;;;;;;13.30;11.80;;;17.90;74.30;;;;;;4948549;28;20465;-42
2021/09/09 02:46:51;;;;;;;13.53;11.40;;;17.90;74.30;;;;;;4951308;28;20466;-43
2021/09/09 02:49:18;;;;;;;15.17;11.43;;;17.90;74.40;;;;;;4949446;28;20462;-42
2021/09/09 02:51:45;;;;;;;12.47;10.47;;;17.90;74.50;;;;;;4948875;28;20472;-42
2021/09/09 02:54:12;;;;;;;16.80;11.57;;;17.90;74.40;;;;;;4949442;28;20463;-42
2021/09/09 02:56:38;;;;;;;15.27;12.13;;;17.90;74.50;;;;;;4949526;28;20494;-42
2021/09/09 02:59:06;;;;;;;12.97;10.83;;;17.80;74.60;;;;;;4951015;28;20487;-42
2021/09/09 03:01:32;;;;;;;15.00;10.23;;;17.90;74.60;;;;;;4948582;28;20811;-42
2021/09/09 03:04:00;;;;;;;14.67;11.00;;;17.90;74.60;;;;;;4951767;28;20469;-42
2021/09/09 03:06:26;;;;;;;13.67;10.77;;;17.90;74.70;;;;;;4948885;28;20550;-42
2021/09/09 03:08:53;;;;;;;13.60;11.37;;;17.90;74.60;;;;;;4951161;28;20489;-42
2021/09/09 03:11:20;;;;;;;21.13;11.20;;;17.80;74.60;;;;;;4946854;28;20467;-42
2021/09/09 03:13:46;;;;;;;15.30;10.87;;;17.80;74.50;;;;;;4951732;28;20478;-42
2021/09/09 03:16:13;;;;;;;11.23;9.83;;;17.80;74.50;;;;;;4948076;28;20553;-42
2021/09/09 03:18:40;;;;;;;13.97;11.20;;;17.80;74.50;;;;;;4946722;28;21008;-42
2021/09/09 03:21:07;;;;;;;17.27;11.80;;;17.80;74.50;;;;;;4946520;28;20455;-42
2021/09/09 03:23:34;;;;;;;14.80;10.70;;;17.80;74.50;;;;;;4961475;28;20828;-42
2021/09/09 03:26:01;;;;;;;13.70;11.83;;;17.80;74.50;;;;;;4947364;28;20466;-42
2021/09/09 03:28:28;;;;;;;14.40;10.30;;;17.80;74.50;;;;;;4948364;28;20477;-42
2021/09/09 03:30:54;;;;;;;11.30;10.13;;;17.80;74.60;;;;;;4948245;28;20463;-42
2021/09/09 03:33:21;;;;;;;12.50;11.17;;;17.80;74.60;;;;;;4949979;28;20471;-42
2021/09/09 03:35:48;;;;;;;12.23;10.37;;;17.70;74.60;;;;;;4948617;28;20497;-42
2021/09/09 03:38:15;;;;;;;13.07;10.50;;;17.70;74.70;;;;;;4948755;28;20462;-42
2021/09/09 03:40:41;;;;;;;13.50;10.90;;;17.70;74.70;;;;;;4947365;28;20820;-42
2021/09/09 03:43:08;;;;;;;15.30;11.17;;;17.70;74.70;;;;;;4946811;28;20456;-42
2021/09/09 03:45:35;;;;;;;11.73;10.53;;;17.70;74.80;;;;;;4948729;28;20464;-42
2021/09/09 03:48:02;;;;;;;13.80;11.20;;;17.70;74.70;;;;;;4947688;28;20968;-42
2021/09/09 03:50:29;;;;;;;15.97;11.47;;;17.70;74.70;;;;;;4947488;28;20843;-42
2021/09/09 03:52:55;;;;;;;13.67;11.67;;;17.70;74.70;;;;;;4946357;28;20806;-42
2021/09/09 03:55:22;;;;;;;12.63;10.60;;;17.70;74.80;;;;;;4943524;28;20470;-42
2021/09/09 03:57:49;;;;;;;13.67;11.20;;;17.60;74.80;;;;;;4944905;28;20464;-42
2021/09/09 04:00:16;;;;;;;14.40;10.43;;;17.60;74.90;;;;;;4944980;28;20940;-42
2021/09/09 04:02:43;;;;;;;16.10;11.37;;;17.60;74.90;;;;;;4947795;28;20458;-43
2021/09/09 04:05:10;;;;;;;13.63;11.07;;;17.60;75.00;;;;;;4946329;28;20948;-42
2021/09/09 04:07:37;;;;;;;13.13;10.27;;;17.60;75.00;;;;;;4947071;28;20470;-42
2021/09/09 04:10:04;;;;;;;13.03;10.83;;;17.50;75.00;;;;;;4946024;28;20472;-42
2021/09/09 04:12:32;;;;;;;11.77;10.43;;;17.50;75.00;;;;;;4947351;28;21044;-42
2021/09/09 04:15:01;;;;;;;12.70;10.43;;;17.50;75.20;;;;;;4947230;28;20866;-42
2021/09/09 04:17:29;;;;;;;14.43;11.30;;;17.50;75.20;;;;;;4948802;28;20463;-42
2021/09/09 04:19:56;;;;;;;16.87;10.70;;;17.50;75.20;;;;;;4946709;28;20495;-42
2021/09/09 04:22:23;;;;;;;12.93;11.30;;;17.50;75.20;;;;;;4948690;28;20464;-42
2021/09/09 04:24:50;;;;;;;13.10;11.30;;;17.40;75.30;;;;;;4944547;28;21091;-43
2021/09/09 04:27:19;;;;;;;14.23;10.63;;;17.40;75.30;;;;;;4947221;28;20737;-42
2021/09/09 04:29:46;;;;;;;13.17;11.13;;;17.40;75.30;;;;;;4949825;28;20817;-42
2021/09/09 04:32:13;;;;;;;12.53;11.23;;;17.40;75.30;;;;;;4945060;28;21171;-42
2021/09/09 04:34:39;;;;;;;14.30;12.00;;;17.40;75.20;;;;;;4943294;28;20475;-43
2021/09/09 04:37:07;;;;;;;13.30;11.17;;;17.40;75.30;;;;;;4946434;28;20471;-42
2021/09/09 04:39:36;;;;;;;14.07;10.57;;;17.40;75.30;;;;;;4943486;28;20519;-43
2021/09/09 04:42:03;;;;;;;13.03;10.83;;;17.30;75.40;;;;;;4947526;28;20967;-42
2021/09/09 04:44:29;;;;;;;14.47;11.00;;;17.30;75.40;;;;;;4945823;28;20830;-42
2021/09/09 04:46:56;;;;;;;12.80;10.63;;;17.30;75.50;;;;;;4946264;28;20465;-42
2021/09/09 04:49:23;;;;;;;14.60;12.17;;;17.30;75.50;;;;;;4942707;28;20459;-42
2021/09/09 04:51:49;;;;;;;15.30;11.93;;;17.30;75.50;;;;;;4944970;28;20563;-42
2021/09/09 04:54:16;;;;;;;15.57;12.03;;;17.30;75.50;;;;;;4942932;28;20464;-42
2021/09/09 04:56:43;;;;;;;12.10;10.33;;;17.30;75.60;;;;;;4946607;28;20852;-42
2021/09/09 04:59:10;;;;;;;15.83;11.67;;;17.30;75.60;;;;;;4949111;28;20497;-42
2021/09/09 05:01:37;;;;;;;16.23;10.90;;;17.20;75.60;;;;;;4950679;28;20835;-42
2021/09/09 05:04:04;;;;;;;13.77;11.43;;;17.20;75.70;;;;;;4950128;28;20502;-42
2021/09/09 05:06:31;;;;;;;15.00;11.70;;;17.20;75.70;;;;;;4951090;28;20451;-42
2021/09/09 05:08:58;;;;;;;17.50;11.70;;;17.20;75.70;;;;;;4948402;28;21011;-42
2021/09/09 05:11:25;;;;;;;17.20;11.70;;;17.20;75.80;;;;;;4944795;28;20463;-42
2021/09/09 05:13:51;;;;;;;14.17;11.70;;;17.20;75.80;;;;;;4948048;28;20745;-42
2021/09/09 05:16:18;;;;;;;14.33;11.17;;;17.20;75.80;;;;;;4945725;28;20470;-42
2021/09/09 05:18:45;;;;;;;15.37;11.40;;;17.10;75.90;;;;;;4948248;28;20999;-42
2021/09/09 05:21:12;;;;;;;14.60;11.17;;;17.20;76.00;;;;;;4947474;28;20459;-42
2021/09/09 05:23:38;;;;;;;15.70;12.73;;;17.20;76.00;;;;;;4941658;28;20880;-43
2021/09/09 05:26:05;;;;;;;13.70;11.00;;;17.20;76.00;;;;;;4944790;28;20460;-42
2021/09/09 05:28:32;;;;;;;12.63;10.90;;;17.20;76.10;;;;;;4945436;28;20455;-42
2021/09/09 05:30:59;;;;;;;12.90;11.00;;;17.20;76.20;;;;;;4946309;28;20826;-43
2021/09/09 05:33:26;;;;;;;18.47;13.00;;;17.20;76.20;;;;;;4945280;28;20811;-42
2021/09/09 05:35:53;;;;;;;18.73;11.83;;;17.20;76.30;;;;;;4945289;28;20466;-42
2021/09/09 05:38:19;;;;;;;13.37;11.97;;;17.20;76.30;;;;;;4944376;28;20463;-43
2021/09/09 05:40:49;;;;;;;16.23;12.33;;;17.20;76.40;;;;;;4944604;28;20491;-42
2021/09/09 05:43:17;;;;;;;14.60;11.10;;;17.20;76.50;;;;;;4946502;28;20477;-42
2021/09/09 05:45:45;;;;;;;13.50;11.20;;;17.20;76.50;;;;;;4952704;28;20475;-42
2021/09/09 05:48:12;;;;;;;15.83;12.70;;;17.20;76.60;;;;;;4951345;28;20459;-42
2021/09/09 05:50:41;;;;;;;12.63;11.33;;;17.20;76.60;;;;;;4953853;28;20467;-42
2021/09/09 05:53:07;;;;;;;17.77;12.07;;;17.30;76.70;;;;;;4950210;28;20981;-42
2021/09/09 05:55:36;;;;;;;15.00;11.50;;;17.30;76.70;;;;;;4951539;28;20459;-42
2021/09/09 05:58:03;;;;;;;15.27;11.43;;;17.30;76.70;;;;;;4955408;28;20977;-42
2021/09/09 06:00:31;;;;;;;14.70;11.97;;;17.40;76.80;;;;;;4953213;28;20486;-42
2021/09/09 06:03:01;;;;;;;21.43;12.77;;;17.40;76.80;;;;;;4953165;28;20978;-42
2021/09/09 06:05:28;;;;;;;14.80;11.33;;;17.50;76.70;;;;;;4955154;28;20462;-42
2021/09/09 06:07:55;;;;;;;15.60;12.57;;;17.60;76.60;;;;;;4954522;28;21431;-42
2021/09/09 06:10:22;;;;;;;17.30;12.07;;;17.60;76.50;;;;;;4952854;28;20465;-42
2021/09/09 06:12:48;;;;;;;17.93;11.97;;;17.60;76.50;;;;;;4954994;28;20478;-42
2021/09/09 06:15:15;;;;;;;14.73;10.80;;;17.70;76.50;;;;;;4953514;28;20495;-42
2021/09/09 06:17:42;;;;;;;16.80;11.60;;;17.70;76.50;;;;;;4952682;28;20506;-42
2021/09/09 06:20:12;;;;;;;14.57;12.57;;;17.80;76.50;;;;;;4951788;28;20871;-42
2021/09/09 06:22:39;;;;;;;19.57;13.30;;;17.80;76.50;;;;;;4951948;28;20798;-42
2021/09/09 06:25:06;;;;;;;16.43;12.87;;;17.90;76.60;;;;;;4951958;28;20473;-42
2021/09/09 06:27:35;;;;;;;16.10;12.30;;;18.00;76.70;;;;;;4955058;28;20462;-42
2021/09/09 06:30:04;;;;;;;18.00;14.33;;;18.00;76.80;;;;;;4956848;28;20983;-42
2021/09/09 06:32:31;;;;;;;19.70;13.00;;;18.10;76.90;;;;;;4955618;28;20907;-42
2021/09/09 06:34:58;;;;;;;21.00;15.57;;;18.10;77.50;;;;;;4954791;28;20470;-42
2021/09/09 06:37:25;;;;;;;19.00;13.87;;;18.20;77.70;;;;;;4954094;28;21227;-42
2021/09/09 06:39:51;;;;;;;20.37;13.87;;;18.20;77.80;;;;;;4955652;28;20490;-42
2021/09/09 06:42:19;;;;;;;21.27;14.23;;;18.20;77.80;;;;;;4953867;28;20474;-42
2021/09/09 06:44:46;;;;;;;20.60;14.30;;;18.20;78.00;;;;;;4954811;28;20457;-42
2021/09/09 06:47:13;;;;;;;23.40;14.70;;;18.20;78.20;;;;;;4957215;28;21306;-42
2021/09/09 06:49:40;;;;;;;19.00;14.73;;;18.30;78.20;;;;;;4956545;28;20459;-42
2021/09/09 06:52:07;;;;;;;19.30;15.07;;;18.30;78.30;;;;;;4955761;28;20570;-42
2021/09/09 06:54:33;;;;;;;17.13;14.20;;;18.30;78.40;;;;;;4951980;28;20454;-42
2021/09/09 06:57:00;;;;;;;20.30;14.77;;;18.40;78.30;;;;;;4953330;28;20455;-42
2021/09/09 06:59:27;;;;;;;16.70;13.87;;;18.50;78.30;;;;;;4954666;28;20494;-43
2021/09/09 07:01:53;;;;;;;22.30;15.50;;;18.50;78.00;;;;;;4947813;28;20470;-42
2021/09/09 07:04:21;;;;;;;18.97;14.87;;;18.50;77.20;;;;;;4953153;29;21004;-42
2021/09/09 07:06:47;;;;;;;23.60;14.57;;;18.60;76.90;;;;;;4950672;28;20462;-42
2021/09/09 07:09:14;;;;;;;20.27;15.10;;;18.70;76.70;;;;;;4947947;28;20471;-43
2021/09/09 07:11:41;;;;;;;18.67;14.53;;;18.80;76.50;;;;;;4951047;28;20457;-43
2021/09/09 07:14:07;;;;;;;20.07;14.30;;;18.90;76.40;;;;;;4948838;28;20485;-42
2021/09/09 07:16:34;;;;;;;18.30;14.90;;;19.00;76.30;;;;;;4948239;28;20832;-42
2021/09/09 07:19:01;;;;;;;17.13;13.70;;;19.10;76.00;;;;;;4951920;28;20456;-42
2021/09/09 07:21:28;;;;;;;20.67;13.40;;;19.20;75.60;;;;;;4950215;28;20494;-42
2021/09/09 07:23:55;;;;;;;17.23;13.73;;;19.30;75.30;;;;;;4946588;28;20471;-42
2021/09/09 07:26:22;;;;;;;15.57;13.40;;;19.40;75.00;;;;;;4948299;28;20474;-43
2021/09/09 07:28:49;;;;;;;16.43;13.60;;;19.50;74.80;;;;;;4947977;28;20464;-42
2021/09/09 07:31:15;;;;;;;21.80;14.00;;;19.60;73.60;;;;;;4950538;28;20459;-42
2021/09/09 07:33:42;;;;;;;19.03;14.00;;;19.70;73.50;;;;;;4952905;28;20885;-42
2021/09/09 07:36:09;;;;;;;15.80;12.27;;;19.90;73.00;;;;;;4950391;28;20462;-42
2021/09/09 07:38:36;;;;;;;15.00;13.13;;;20.00;72.70;;;;;;4943436;28;20498;-42
2021/09/09 07:41:03;;;;;;;16.27;13.23;;;20.10;72.20;;;;;;4946189;28;20493;-43
2021/09/09 07:43:30;;;;;;;18.73;14.40;;;20.30;71.50;;;;;;4946763;28;20848;-42
2021/09/09 07:45:57;;;;;;;17.83;13.40;;;20.50;70.50;;;;;;4946786;28;20891;-42
2021/09/09 07:48:24;;;;;;;14.10;12.27;;;20.60;70.20;;;;;;4943105;28;20474;-42
2021/09/09 07:50:50;;;;;;;15.30;13.47;;;20.90;69.70;;;;;;4948508;28;20872;-42
2021/09/09 07:53:20;;;;;;;15.03;12.50;;;21.00;69.10;;;;;;4944814;28;20470;-43
2021/09/09 07:55:46;;;;;;;15.20;12.00;;;21.30;69.10;;;;;;4952487;28;20825;-42
2021/09/09 07:58:15;;;;;;;19.53;14.80;;;21.40;69.00;;;;;;4944450;28;20469;-42
2021/09/09 08:00:42;;;;;;;18.07;12.27;;;21.60;67.90;;;;;;4947133;28;20501;-43
2021/09/09 08:03:09;;;;;;;17.47;12.10;;;21.80;67.10;;;;;;4946860;28;20459;-42
2021/09/09 08:05:41;;;;;;;17.67;13.70;;;22.00;66.70;;;;;;4946871;28;20463;-43
2021/09/09 08:08:08;;;;;;;15.73;13.37;;;22.30;66.00;;;;;;4948917;28;20463;-43
2021/09/09 08:10:34;;;;;;;21.80;13.53;;;22.50;65.40;;;;;;4946858;28;20462;-43
2021/09/09 08:13:01;;;;;;;16.90;12.67;;;22.60;65.10;;;;;;4945174;28;21099;-43
2021/09/09 08:15:28;;;;;;;15.87;12.30;;;22.80;64.70;;;;;;4947116;28;20474;-43
2021/09/09 08:17:55;;;;;;;16.63;12.97;;;22.90;64.30;;;;;;4949278;28;20480;-42
2021/09/09 08:20:22;;;;;;;14.53;11.80;;;23.10;63.50;;;;;;4948582;28;20864;-42
2021/09/09 08:22:48;;;;;;;16.43;12.03;;;23.30;63.30;;;;;;4950487;28;20840;-42
2021/09/09 08:25:15;;;;;;;13.73;12.00;;;23.50;62.50;;;;;;4946715;28;20462;-43
2021/09/09 08:27:42;;;;;;;13.47;11.50;;;23.70;61.90;;;;;;4950615;28;20454;-43
2021/09/09 08:30:09;;;;;;;15.40;12.27;;;23.90;61.70;;;;;;4945703;28;20458;-43
2021/09/09 08:32:36;;;;;;;13.90;10.60;;;24.10;61.30;;;;;;4929819;28;20479;-42
2021/09/09 08:35:04;;;;;;;13.20;11.67;;;24.30;61.20;;;;;;4947572;28;20462;-43
2021/09/09 08:37:31;;;;;;;14.00;11.67;;;24.50;60.60;;;;;;4947047;28;20458;-43
2021/09/09 08:39:58;;;;;;;17.30;14.53;;;24.70;59.90;;;;;;4953157;28;20850;-43
2021/09/09 08:42:28;;;;;;;12.70;10.90;;;25.00;59.60;;;;;;4951453;28;20458;-43
2021/09/09 08:44:55;;;;;;;14.40;11.37;;;25.20;59.40;;;;;;4946261;28;20475;-43
2021/09/09 08:47:24;;;;;;;15.30;11.60;;;25.30;59.00;;;;;;4945856;28;20458;-43
2021/09/09 08:49:52;;;;;;;15.20;12.37;;;25.60;58.90;;;;;;4942956;29;20477;-43
2021/09/09 08:52:19;;;;;;;14.70;11.20;;;25.80;58.10;;;;;;4947250;28;20459;-42
2021/09/09 08:54:46;;;;;;;13.17;11.73;;;26.00;57.80;;;;;;4945545;28;20458;-43
2021/09/09 08:57:18;;;;;;;13.80;11.00;;;26.10;57.00;;;;;;4942845;28;20936;-42
2021/09/09 08:59:48;;;;;;;11.50;10.40;;;26.30;56.20;;;;;;4943630;28;20473;-43
2021/09/09 09:02:29;;;;;;;12.30;10.60;;;26.40;56.10;;;;;;4945447;29;20462;-43
2021/09/09 09:05:06;;;;;;;13.00;10.57;;;26.60;55.60;;;;;;4946542;28;20459;-43
2021/09/09 09:07:35;;;;;;;11.93;10.33;;;26.60;55.70;;;;;;4945801;28;20462;-43
2021/09/09 09:10:07;;;;;;;12.07;10.30;;;26.60;55.60;;;;;;4945540;28;20454;-43
2021/09/09 09:12:49;;;;;;;13.87;9.73;;;26.60;55.80;;;;;;4944718;28;20540;-43
2021/09/09 09:15:28;;;;;;;22.23;11.23;;;26.70;55.70;;;;;;4947304;28;20471;-42
2021/09/09 09:18:08;;;;;;;12.30;10.07;;;26.80;55.10;;;;;;4940858;28;20463;-43
2021/09/09 09:20:36;;;;;;;10.40;9.40;;;27.10;54.30;;;;;;4940374;28;20873;-43
2021/09/09 09:23:14;;;;;;;11.13;10.10;;;27.10;54.30;;;;;;4948770;28;20469;-43
2021/09/09 09:25:46;;;;;;;12.97;9.60;;;27.20;54.00;;;;;;4942246;28;20466;-43
2021/09/09 09:28:13;;;;;;;11.13;10.00;;;27.30;54.00;;;;;;4947711;28;20458;-43
2021/09/09 09:31:05;;;;;;;11.37;8.53;;;27.30;53.80;;;;;;4946667;28;20465;-43
2021/09/09 09:33:34;;;;;;;10.40;9.33;;;27.40;53.50;;;;;;4947807;28;20497;-43
2021/09/09 09:36:17;;;;;;;10.23;9.07;;;27.40;53.20;;;;;;4947081;28;20461;-42
2021/09/09 09:38:44;;;;;;;13.53;9.93;;;27.20;53.00;;;;;;4947185;28;20453;-43
2021/09/09 09:41:12;;;;;;;10.37;8.83;;;27.10;53.20;;;;;;4943891;28;20494;-43
2021/09/09 09:43:50;;;;;;;13.23;10.20;;;26.90;53.80;;;;;;4948954;28;20454;-43
2021/09/09 09:46:43;;;;;;;10.00;8.73;;;26.70;54.80;;;;;;4940813;28;20845;-43
2021/09/09 09:49:16;;;;;;;9.90;8.63;;;26.60;55.00;;;;;;4944022;28;20459;-43
2021/09/09 09:51:45;;;;;;;9.80;8.87;;;26.50;55.80;;;;;;4944196;28;20469;-44
2021/09/09 09:54:14;;;;;;;10.93;9.83;;;26.50;55.70;;;;;;4944253;28;20470;-43
2021/09/09 09:56:42;;;;;;;10.57;9.50;;;26.40;56.10;;;;;;4947636;28;20952;-43
2021/09/09 09:59:11;;;;;;;9.70;8.70;;;26.40;56.20;;;;;;4946869;28;20467;-42
2021/09/09 10:01:38;;;;;;;12.47;10.03;;;26.30;56.40;;;;;;4945020;28;20510;-43
2021/09/09 10:04:14;;;;;;;9.73;8.80;;;26.40;56.60;;;;;;4949469;28;20455;-42
2021/09/09 10:06:44;;;;;;;10.87;9.60;;;26.50;56.50;;;;;;4944700;28;20518;-43
2021/09/09 10:09:12;;;;;;;10.10;9.10;;;26.60;56.40;;;;;;4946640;28;20469;-43
2021/09/09 10:11:39;;;;;;;16.90;8.50;;;26.80;55.70;;;;;;4946382;28;20554;-43
2021/09/09 10:14:07;;;;;;;10.20;8.50;;;27.00;55.10;;;;;;4947590;28;20545;-43
2021/09/09 10:16:42;;;;;;;13.00;9.00;;;27.30;54.60;;;;;;4949956;28;21057;-42
2021/09/09 10:19:21;;;;;;;10.13;9.13;;;27.60;54.60;;;;;;4949018;28;20529;-42
2021/09/09 10:21:48;;;;;;;12.17;9.40;;;28.00;53.40;;;;;;4945631;28;20304;-42
2021/09/09 10:24:18;;;;;;;10.17;9.13;;;28.20;52.80;;;;;;4943929;28;20209;-42
2021/09/09 10:26:46;;;;;;;10.43;9.33;;;28.10;52.70;;;;;;4944293;28;20466;-42
2021/09/09 10:29:45;;;;;;;14.40;8.87;;;27.90;53.10;;;;;;4947246;28;20204;-42
2021/09/09 10:32:30;;;;;;;12.40;8.80;;;27.80;53.50;;;;;;4948384;28;20558;-43
2021/09/09 10:35:15;;;;;;;9.70;8.60;;;27.50;54.20;;;;;;4948049;28;20465;-42
2021/09/09 10:37:42;;;;;;;11.73;9.20;;;27.30;54.40;;;;;;4948337;28;20222;-43
2021/09/09 10:40:31;;;;;;;10.07;8.67;;;27.10;54.60;;;;;;4949499;28;20496;-43
2021/09/09 10:43:05;;;;;;;10.63;7.80;;;26.90;55.20;;;;;;4946812;28;20546;-43
2021/09/09 10:45:38;;;;;;;9.47;7.87;;;26.70;56.10;;;;;;4951793;28;20454;-43
2021/09/09 10:48:18;;;;;;;8.77;7.87;;;26.50;56.40;;;;;;4952086;28;20453;-43
2021/09/09 10:51:00;;;;;;;9.20;8.30;;;26.40;56.40;;;;;;4946182;28;20682;-42
2021/09/09 10:53:48;;;;;;;8.70;7.13;;;26.30;57.00;;;;;;4963830;28;20454;-44
2021/09/09 10:56:19;;;;;;;8.90;8.00;;;26.20;57.20;;;;;;4948929;28;20461;-43
2021/09/09 10:59:12;;;;;;;9.53;8.63;;;26.30;57.10;;;;;;4951341;28;20460;-42
2021/09/09 11:01:43;;;;;;;9.43;8.43;;;26.30;56.80;;;;;;4944845;28;20544;-42
2021/09/09 11:04:34;;;;;;;9.03;8.13;;;26.30;57.00;;;;;;4947893;28;20842;-42
2021/09/09 11:07:02;;;;;;;8.23;7.43;;;26.20;57.70;;;;;;4947604;28;20518;-43
2021/09/09 11:09:29;;;;;;;10.07;8.97;;;26.10;57.90;;;;;;4949810;28;20450;-43
2021/09/09 11:12:04;;;;;;;10.47;8.20;;;26.10;58.20;;;;;;4946943;28;20868;-43
2021/09/09 11:14:32;;;;;;;12.60;8.60;;;26.10;58.20;;;;;;4949405;28;20508;-43
2021/09/09 11:16:59;;;;;;;10.00;7.57;;;26.10;58.30;;;;;;4946462;28;20513;-43
2021/09/09 11:19:27;;;;;;;10.33;8.97;;;26.20;58.60;;;;;;4951390;28;20533;-43
2021/09/09 11:21:59;;;;;;;8.83;7.93;;;26.20;58.60;;;;;;4948464;28;20588;-43
2021/09/09 11:24:27;;;;;;;8.90;7.57;;;26.20;58.30;;;;;;4947467;29;20466;-42
2021/09/09 11:26:54;;;;;;;8.20;7.40;;;26.30;58.10;;;;;;4946077;28;20473;-42
2021/09/09 11:29:24;;;;;;;7.50;6.80;;;26.40;57.90;;;;;;4948780;28;20562;-42
2021/09/09 11:31:54;;;;;;;8.63;7.57;;;26.50;57.20;;;;;;4945717;28;20854;-42
2021/09/09 11:34:24;;;;;;;7.90;7.10;;;26.50;57.50;;;;;;4946940;28;20492;-43
2021/09/09 11:36:52;;;;;;;8.00;7.17;;;26.50;57.90;;;;;;4945816;28;20478;-42
2021/09/09 11:39:23;;;;;;;15.33;7.07;;;26.50;57.90;;;;;;4946849;28;20470;-43
2021/09/09 11:41:52;;;;;;;9.80;7.00;;;26.50;57.90;;;;;;4947518;28;20493;-42
2021/09/09 11:44:27;;;;;;;7.60;6.80;;;26.60;57.60;;;;;;4945078;28;20601;-43
2021/09/09 11:46:56;;;;;;;8.80;7.90;;;26.60;57.90;;;;;;4947604;28;20822;-43
2021/09/09 11:49:29;;;;;;;7.57;6.80;;;26.60;58.10;;;;;;4943831;28;20465;-42
2021/09/09 11:51:58;;;;;;;9.97;6.23;;;26.70;57.90;;;;;;4949505;28;20469;-43
2021/09/09 11:54:30;;;;;;;7.77;7.00;;;26.70;57.80;;;;;;4950641;28;20459;-43
2021/09/09 11:57:06;;;;;;;7.50;6.80;;;26.60;58.30;;;;;;4946239;28;20497;-42
2021/09/09 11:59:34;;;;;;;11.30;7.60;;;26.60;58.60;;;;;;4948626;28;20502;-43
2021/09/09 12:02:07;;;;;;;7.03;6.33;;;26.60;58.50;;;;;;4946042;28;20482;-42
2021/09/09 12:04:38;;;;;;;8.20;6.80;;;26.70;58.40;;;;;;4948252;28;20467;-42
2021/09/09 12:07:09;;;;;;;11.87;7.00;;;26.70;58.30;;;;;;4946869;28;20455;-42
2021/09/09 12:09:39;;;;;;;7.30;6.60;;;26.70;58.50;;;;;;4947002;28;20976;-43
2021/09/09 12:12:08;;;;;;;7.80;7.00;;;26.70;58.40;;;;;;4946229;28;20467;-42
2021/09/09 12:14:38;;;;;;;8.27;6.10;;;26.80;58.50;;;;;;4947683;28;20565;-42
2021/09/09 12:17:15;;;;;;;7.90;6.63;;;26.80;58.30;;;;;;4946570;28;20550;-42
2021/09/09 12:20:01;;;;;;;6.37;5.70;;;26.80;58.30;;;;;;4948475;28;20843;-43
2021/09/09 12:22:46;;;;;;;8.00;7.20;;;26.80;58.10;;;;;;4947458;28;20859;-43
2021/09/09 12:25:16;;;;;;;11.03;6.57;;;26.80;58.30;;;;;;4946171;28;20951;-43
2021/09/09 12:28:07;;;;;;;8.20;6.30;;;26.80;58.40;;;;;;4947265;28;21061;-43
2021/09/09 12:30:50;;;;;;;10.03;6.77;;;26.90;57.90;;;;;;4948617;28;20446;-41
2021/09/09 12:33:25;;;;;;;7.63;6.60;;;26.90;58.50;;;;;;4943431;28;20488;-43
2021/09/09 12:36:09;;;;;;;8.27;6.70;;;26.90;58.50;;;;;;4943322;28;20964;-43
2021/09/09 12:38:43;;;;;;;7.83;7.03;;;26.90;58.40;;;;;;4949298;28;20450;-42
2021/09/09 12:41:29;;;;;;;7.90;7.10;;;26.90;58.00;;;;;;4944693;28;20490;-43